Time;durP1;ratioP1;P1;durP2;ratioP2;P2;SDS_P1;SDS_P2;PMS_P1;PMS_P2;Temp;Humidity;BMP_temperature;BMP_pressure;BME280_temperature;BME280_humidity;BME280_pressure;Samples;Min_cycle;Max_cycle;Signal;HPM_P1;HPM_P2
2022/05/03 00:01:08;;;;;;;8.07;5.90;;;8.40;99.90;;;;;;5089100;28;20040;-73
2022/05/03 00:04:02;;;;;;;9.27;5.80;;;8.40;99.90;;;;;;5088643;28;21022;-74
2022/05/03 00:06:44;;;;;;;9.10;6.60;;;8.30;99.90;;;;;;5103041;27;20036;-74
2022/05/03 00:09:15;;;;;;;8.10;6.38;;;8.30;99.90;;;;;;5095571;28;20562;-74
2022/05/03 00:11:46;;;;;;;7.63;6.45;;;8.20;99.90;;;;;;5105113;27;20067;-74
2022/05/03 00:14:33;;;;;;;8.48;6.10;;;8.10;99.90;;;;;;5097000;28;20044;-73
2022/05/03 00:16:59;;;;;;;8.43;6.07;;;7.90;99.90;;;;;;5101074;28;20044;-73
2022/05/03 00:19:26;;;;;;;8.55;6.25;;;7.90;99.90;;;;;;5095178;28;20487;-73
2022/05/03 00:21:52;;;;;;;7.45;5.90;;;7.80;99.90;;;;;;5100743;28;20043;-73
2022/05/03 00:24:19;;;;;;;9.57;6.20;;;7.70;99.90;;;;;;5096117;28;20032;-73
2022/05/03 00:26:45;;;;;;;7.90;6.50;;;7.70;99.90;;;;;;5089098;28;20051;-73
2022/05/03 00:29:11;;;;;;;7.20;5.80;;;7.70;99.90;;;;;;5111138;28;20093;-74
2022/05/03 00:31:37;;;;;;;8.10;6.65;;;7.70;99.90;;;;;;5111713;28;20110;-73
2022/05/03 00:34:04;;;;;;;7.40;6.28;;;7.70;99.90;;;;;;5104216;27;20481;-73
2022/05/03 00:36:31;;;;;;;8.35;6.45;;;7.70;99.90;;;;;;5110415;28;20410;-74
2022/05/03 00:38:57;;;;;;;7.55;6.25;;;7.60;99.90;;;;;;5108231;27;20043;-73
2022/05/03 00:41:44;;;;;;;7.07;5.90;;;7.60;99.90;;;;;;5108204;28;20040;-74
2022/05/03 00:44:55;;;;;;;8.43;6.97;;;7.60;99.90;;;;;;5097812;28;20044;-73
2022/05/03 00:47:44;;;;;;;7.65;6.38;;;7.60;99.90;;;;;;5093269;28;20048;-74
2022/05/03 00:50:34;;;;;;;7.60;6.63;;;7.50;99.90;;;;;;5098064;27;20036;-74
2022/05/03 00:53:38;;;;;;;8.65;6.72;;;7.50;99.90;;;;;;5090109;27;20476;-73
2022/05/03 00:56:17;;;;;;;7.90;6.20;;;7.50;99.90;;;;;;5100257;28;20727;-73
2022/05/03 00:58:55;;;;;;;8.27;6.95;;;7.50;99.90;;;;;;5114516;27;20050;-73
2022/05/03 01:01:33;;;;;;;7.50;6.28;;;7.40;99.90;;;;;;5095092;27;20080;-73
2022/05/03 01:04:24;;;;;;;7.90;6.30;;;7.40;99.90;;;;;;5115013;27;20043;-73
2022/05/03 01:07:23;;;;;;;9.75;6.53;;;7.40;99.90;;;;;;5107959;28;20054;-74
2022/05/03 01:10:30;;;;;;;8.38;6.30;;;7.40;99.90;;;;;;5097237;28;20368;-74
2022/05/03 01:13:03;;;;;;;7.30;6.18;;;7.40;99.90;;;;;;5103574;28;20048;-73
2022/05/03 01:15:37;;;;;;;7.93;7.00;;;7.30;99.90;;;;;;5093208;27;20092;-73
2022/05/03 01:18:09;;;;;;;8.40;7.00;;;7.30;99.90;;;;;;5105542;28;20044;-74
2022/05/03 01:20:53;;;;;;;8.75;7.03;;;7.20;99.90;;;;;;5092284;27;20044;-73
2022/05/03 01:23:24;;;;;;;10.50;7.40;;;7.10;99.90;;;;;;5092963;27;20051;-73
2022/05/03 01:26:17;;;;;;;9.07;7.68;;;7.10;99.90;;;;;;5098969;27;20105;-72
2022/05/03 01:28:51;;;;;;;9.80;7.55;;;7.10;99.90;;;;;;5104144;27;20116;-73
2022/05/03 01:31:17;;;;;;;9.60;7.70;;;7.10;99.90;;;;;;5095547;27;20143;-73
2022/05/03 01:33:49;;;;;;;9.60;7.35;;;7.10;99.90;;;;;;5093394;27;20131;-73
2022/05/03 01:36:27;;;;;;;11.63;8.18;;;7.00;99.90;;;;;;5104167;27;20483;-73
2022/05/03 01:39:04;;;;;;;7.93;7.07;;;7.00;99.90;;;;;;5091958;27;20097;-73
2022/05/03 01:41:49;;;;;;;10.13;8.00;;;7.00;99.90;;;;;;5108611;27;20054;-75
2022/05/03 01:44:33;;;;;;;10.38;6.88;;;7.00;99.90;;;;;;5110422;28;20047;-74
2022/05/03 01:47:17;;;;;;;9.80;7.57;;;6.90;99.90;;;;;;5109107;27;20055;-73
2022/05/03 01:50:19;;;;;;;9.55;7.80;;;6.80;99.90;;;;;;5095096;28;20803;-73
2022/05/03 01:53:10;;;;;;;10.18;8.27;;;6.80;99.90;;;;;;5106395;27;20109;-73
2022/05/03 01:56:00;;;;;;;8.77;7.78;;;6.80;99.90;;;;;;5110684;27;20043;-73
2022/05/03 01:58:34;;;;;;;8.95;7.78;;;6.80;99.90;;;;;;5110736;27;20509;-74
2022/05/03 02:01:09;;;;;;;10.82;8.23;;;6.80;99.90;;;;;;5103481;27;20050;-74
2022/05/03 02:04:02;;;;;;;9.43;8.38;;;6.70;99.90;;;;;;5120759;27;20043;-74
2022/05/03 02:06:55;;;;;;;13.25;9.35;;;6.80;99.90;;;;;;5110244;28;20047;-73
2022/05/03 02:09:50;;;;;;;14.10;9.13;;;6.80;99.90;;;;;;5109137;27;20051;-74
2022/05/03 02:12:19;;;;;;;11.07;8.85;;;6.80;99.90;;;;;;5110090;28;20051;-75
2022/05/03 02:14:47;;;;;;;14.25;8.68;;;6.80;99.90;;;;;;5111890;28;20112;-74
2022/05/03 02:17:32;;;;;;;12.30;8.73;;;6.70;99.90;;;;;;5110970;28;20100;-73
2022/05/03 02:20:12;;;;;;;11.93;9.45;;;6.70;99.90;;;;;;5110046;27;20542;-74
2022/05/03 02:22:47;;;;;;;12.35;9.60;;;6.70;99.90;;;;;;5110804;28;20498;-74
2022/05/03 02:25:36;;;;;;;10.57;8.95;;;6.60;99.90;;;;;;5111320;27;20407;-73
2022/05/03 02:28:43;;;;;;;11.70;8.60;;;6.60;99.90;;;;;;5110718;28;20035;-73
2022/05/03 02:31:13;;;;;;;12.43;8.38;;;6.50;99.90;;;;;;5101657;27;20052;-74
2022/05/03 02:33:54;;;;;;;13.65;9.43;;;6.50;99.90;;;;;;5110778;27;20394;-74
2022/05/03 02:36:24;;;;;;;12.65;8.05;;;6.50;99.90;;;;;;5091309;27;20046;-73
2022/05/03 02:39:03;;;;;;;11.35;8.32;;;6.50;99.90;;;;;;5107502;27;20036;-74
2022/05/03 02:41:37;;;;;;;12.02;9.05;;;6.50;99.90;;;;;;5100401;27;20074;-74
2022/05/03 02:44:04;;;;;;;12.48;9.00;;;6.40;99.90;;;;;;5111345;27;20542;-74
2022/05/03 02:46:46;;;;;;;13.87;9.50;;;6.40;99.90;;;;;;5110954;28;20116;-73
2022/05/03 02:49:18;;;;;;;11.35;9.63;;;6.40;99.90;;;;;;5117435;27;20665;-73
2022/05/03 02:52:01;;;;;;;11.75;8.90;;;6.40;99.90;;;;;;5130410;27;20125;-73
2022/05/03 02:54:50;;;;;;;10.07;8.57;;;6.40;99.90;;;;;;5115905;27;20433;-74
2022/05/03 02:57:31;;;;;;;12.40;9.30;;;6.40;99.90;;;;;;5109692;28;20130;-72
2022/05/03 03:03:23;;;;;;;11.37;9.27;;;6.20;99.90;;;;;;5110914;28;20058;-73
2022/05/03 03:05:56;;;;;;;10.85;8.95;;;6.10;99.90;;;;;;5106636;27;20048;-73
2022/05/03 03:08:23;;;;;;;13.85;8.65;;;6.00;99.90;;;;;;5105865;27;20032;-74
2022/05/03 03:11:03;;;;;;;10.48;8.25;;;6.10;99.90;;;;;;5111078;27;20081;-74
2022/05/03 03:13:40;;;;;;;10.35;8.18;;;6.00;99.90;;;;;;5109064;27;20040;-73
2022/05/03 03:16:13;;;;;;;11.02;8.60;;;6.00;99.90;;;;;;5104190;27;20047;-72
2022/05/03 03:18:45;;;;;;;10.80;9.02;;;5.90;99.90;;;;;;5112846;27;20074;-72
2022/05/03 03:21:15;;;;;;;13.02;8.80;;;5.90;99.90;;;;;;5107919;27;20065;-72
2022/05/03 03:23:41;;;;;;;12.30;9.55;;;6.00;99.90;;;;;;5109842;27;20422;-73
2022/05/03 03:26:09;;;;;;;11.25;9.20;;;6.00;99.90;;;;;;5107648;27;20483;-73
2022/05/03 03:28:37;;;;;;;11.20;9.40;;;6.00;99.90;;;;;;5108537;27;20775;-73
2022/05/03 03:31:05;;;;;;;11.52;9.75;;;6.00;99.90;;;;;;5091156;27;20048;-73
2022/05/03 03:33:34;;;;;;;12.85;9.88;;;6.00;99.90;;;;;;5089063;28;20059;-73
2022/05/03 03:36:02;;;;;;;11.90;9.65;;;6.00;99.90;;;;;;5098736;28;20123;-73
2022/05/03 03:38:40;;;;;;;12.73;9.82;;;6.00;99.90;;;;;;5109103;27;20070;-73
2022/05/03 03:41:07;;;;;;;13.32;10.27;;;5.90;99.90;;;;;;5108005;28;20696;-73
2022/05/03 03:43:32;;;;;;;12.60;10.40;;;5.90;99.90;;;;;;5109114;28;20043;-73
2022/05/03 03:45:58;;;;;;;15.32;10.70;;;5.90;99.90;;;;;;5108855;27;20494;-73
2022/05/03 03:48:24;;;;;;;12.77;10.30;;;6.00;99.90;;;;;;5109004;28;20051;-73
2022/05/03 03:50:50;;;;;;;11.85;10.02;;;5.90;99.90;;;;;;5110288;28;20058;-74
2022/05/03 03:53:16;;;;;;;14.60;10.88;;;5.90;99.90;;;;;;5109844;28;20044;-73
2022/05/03 03:55:44;;;;;;;15.05;11.30;;;5.90;99.90;;;;;;5097132;28;20406;-73
2022/05/03 03:58:10;;;;;;;13.93;11.68;;;5.90;99.90;;;;;;5089410;28;20568;-73
2022/05/03 04:00:35;;;;;;;14.43;12.43;;;5.90;99.90;;;;;;5096232;28;20071;-73
2022/05/03 04:03:01;;;;;;;12.93;11.20;;;5.90;99.90;;;;;;5109979;27;20097;-73
2022/05/03 04:05:28;;;;;;;15.50;12.35;;;5.90;99.90;;;;;;5104392;28;20055;-73
2022/05/03 04:07:53;;;;;;;15.90;12.23;;;5.80;99.90;;;;;;5109404;28;20050;-73
2022/05/03 04:10:20;;;;;;;15.65;11.60;;;5.80;99.90;;;;;;5108597;28;20486;-73
2022/05/03 04:12:46;;;;;;;14.15;11.60;;;5.80;99.90;;;;;;5100165;27;20040;-73
2022/05/03 04:15:12;;;;;;;14.27;11.75;;;5.70;99.90;;;;;;5090140;28;20391;-72
2022/05/03 04:17:37;;;;;;;15.40;12.23;;;5.70;99.90;;;;;;5106358;28;20036;-73
2022/05/03 04:20:03;;;;;;;17.30;12.85;;;5.70;99.90;;;;;;5108415;28;20383;-72
2022/05/03 04:22:33;;;;;;;19.15;12.90;;;5.70;99.90;;;;;;5096403;28;20361;-72
2022/05/03 04:25:06;;;;;;;15.00;11.85;;;5.80;99.90;;;;;;5089150;28;20040;-73
2022/05/03 04:27:38;;;;;;;14.25;12.63;;;5.80;99.90;;;;;;5088067;28;20058;-72
2022/05/03 04:30:04;;;;;;;17.30;12.75;;;5.90;99.90;;;;;;5108179;28;20039;-73
2022/05/03 04:32:31;;;;;;;13.25;11.75;;;5.90;99.90;;;;;;5108749;28;20040;-73
2022/05/03 04:34:58;;;;;;;16.25;13.27;;;6.00;99.90;;;;;;5109367;28;20039;-72
2022/05/03 04:37:24;;;;;;;16.73;12.85;;;6.00;99.90;;;;;;5108213;28;20040;-73
2022/05/03 04:39:50;;;;;;;14.40;12.85;;;6.00;99.90;;;;;;5095550;28;20046;-72
2022/05/03 04:42:16;;;;;;;16.20;13.05;;;6.10;99.90;;;;;;5088854;28;20123;-73
2022/05/03 04:44:41;;;;;;;16.95;12.68;;;6.10;99.90;;;;;;5088975;28;20458;-73
2022/05/03 04:47:07;;;;;;;16.90;15.10;;;6.20;99.90;;;;;;5101343;28;20406;-72
2022/05/03 04:49:33;;;;;;;17.38;14.38;;;6.20;99.90;;;;;;5111030;28;20547;-72
2022/05/03 04:51:58;;;;;;;17.30;14.63;;;6.30;99.90;;;;;;5107622;28;20474;-73
2022/05/03 04:54:24;;;;;;;15.70;14.00;;;6.30;99.90;;;;;;5109186;28;20067;-72
2022/05/03 04:56:53;;;;;;;18.67;14.60;;;6.40;99.90;;;;;;5087395;28;20052;-73
2022/05/03 04:59:18;;;;;;;17.48;14.57;;;6.40;99.90;;;;;;5099135;28;20044;-73
2022/05/03 05:01:44;;;;;;;17.33;14.70;;;6.40;99.90;;;;;;5108019;28;20048;-72
2022/05/03 05:04:12;;;;;;;18.00;15.43;;;6.50;99.90;;;;;;5095976;28;20063;-73
2022/05/03 05:06:38;;;;;;;16.98;15.18;;;6.60;99.90;;;;;;5089063;28;20072;-72
2022/05/03 05:09:04;;;;;;;17.85;15.00;;;6.70;99.90;;;;;;5090013;28;20553;-72
2022/05/03 05:11:29;;;;;;;18.92;16.17;;;6.80;99.90;;;;;;5086822;28;20058;-72
2022/05/03 05:13:55;;;;;;;20.27;16.20;;;6.90;99.90;;;;;;5087941;28;20044;-72
2022/05/03 05:16:21;;;;;;;19.80;15.77;;;7.00;99.90;;;;;;5090100;28;20040;-72
2022/05/03 05:18:46;;;;;;;17.95;15.68;;;7.10;99.90;;;;;;5103216;27;20044;-73
2022/05/03 05:21:15;;;;;;;19.38;15.35;;;7.20;99.90;;;;;;5113068;27;20089;-73
2022/05/03 05:23:40;;;;;;;16.67;14.85;;;7.20;99.90;;;;;;5110921;27;20075;-73
2022/05/03 05:26:06;;;;;;;19.20;15.73;;;7.30;99.90;;;;;;5108244;27;20036;-72
2022/05/03 05:28:31;;;;;;;16.48;14.73;;;7.40;99.90;;;;;;5107046;27;20062;-73
2022/05/03 05:30:57;;;;;;;19.67;14.85;;;7.50;99.90;;;;;;5111739;28;20047;-72
2022/05/03 05:33:23;;;;;;;17.08;15.25;;;7.70;99.90;;;;;;5110315;27;20130;-73
2022/05/03 05:35:50;;;;;;;16.95;15.23;;;7.70;99.90;;;;;;5113214;27;20371;-72
2022/05/03 05:38:17;;;;;;;17.43;15.63;;;7.80;99.90;;;;;;5110578;28;20058;-72
2022/05/03 05:40:44;;;;;;;18.98;16.90;;;7.90;99.90;;;;;;5111996;28;20060;-73
2022/05/03 05:43:09;;;;;;;21.20;17.52;;;8.00;99.90;;;;;;5111960;27;20040;-73
2022/05/03 05:45:35;;;;;;;22.52;19.52;;;8.00;99.90;;;;;;5111265;28;20046;-72
2022/05/03 05:48:01;;;;;;;21.75;19.38;;;8.10;99.90;;;;;;5110544;27;20558;-72
2022/05/03 05:50:27;;;;;;;22.08;18.73;;;8.20;99.90;;;;;;5108696;28;20048;-73
2022/05/03 05:55:37;;;;;;;27.17;21.20;;;8.30;99.90;;;;;;5108142;27;20040;-73
2022/05/03 05:58:06;;;;;;;30.25;24.17;;;8.40;99.90;;;;;;5106769;27;20055;-71
2022/05/03 06:00:32;;;;;;;28.60;23.60;;;8.50;99.90;;;;;;5110260;27;20054;-73
2022/05/03 06:03:01;;;;;;;29.38;23.55;;;8.60;99.90;;;;;;5105076;27;20050;-74
2022/05/03 06:05:27;;;;;;;31.10;26.20;;;8.70;99.90;;;;;;5111316;27;20055;-73
2022/05/03 06:07:53;;;;;;;31.85;26.60;;;8.80;99.90;;;;;;5131403;27;20653;-74
2022/05/03 06:10:20;;;;;;;30.25;26.77;;;8.90;99.90;;;;;;5112104;27;20039;-73
2022/05/03 06:12:47;;;;;;;32.42;28.52;;;9.00;99.90;;;;;;5111454;28;20142;-73
2022/05/03 06:15:12;;;;;;;37.37;31.23;;;9.00;99.90;;;;;;5107519;27;20534;-74
2022/05/03 06:17:40;;;;;;;40.28;32.30;;;9.20;99.90;;;;;;5110841;28;20042;-73
2022/05/03 06:20:07;;;;;;;43.17;34.35;;;9.30;99.90;;;;;;5110814;28;20056;-72
2022/05/03 06:22:33;;;;;;;40.35;35.50;;;9.40;99.90;;;;;;5107691;27;20055;-73
2022/05/03 06:24:59;;;;;;;41.45;36.38;;;9.50;99.90;;;;;;5102568;27;20047;-72
2022/05/03 06:27:24;;;;;;;41.25;36.83;;;9.60;99.90;;;;;;5108613;27;20043;-72
2022/05/03 06:29:50;;;;;;;42.20;37.70;;;9.70;99.90;;;;;;5103795;27;20050;-72
2022/05/03 06:32:16;;;;;;;41.15;36.83;;;9.80;99.90;;;;;;5116222;27;20138;-73
2022/05/03 06:34:41;;;;;;;43.08;38.38;;;9.90;99.90;;;;;;5123805;27;20055;-72
2022/05/03 06:37:07;;;;;;;44.03;38.45;;;10.00;99.90;;;;;;5109946;28;20054;-72
2022/05/03 06:39:35;;;;;;;41.60;37.20;;;10.10;99.90;;;;;;5102534;28;20104;-72
2022/05/03 06:42:04;;;;;;;45.95;38.13;;;10.20;99.90;;;;;;5108420;27;20079;-72
2022/05/03 06:44:29;;;;;;;42.33;36.75;;;10.40;99.90;;;;;;5101381;27;20047;-72
2022/05/03 06:46:55;;;;;;;41.58;37.03;;;10.50;99.90;;;;;;5092309;27;20097;-72
2022/05/03 06:49:21;;;;;;;42.10;37.53;;;10.60;99.90;;;;;;5102021;27;20474;-72
2022/05/03 06:51:46;;;;;;;44.00;38.30;;;10.70;99.90;;;;;;5110178;28;20050;-72
2022/05/03 06:54:12;;;;;;;40.67;36.30;;;10.80;99.90;;;;;;5102916;27;20639;-73
2022/05/03 06:56:37;;;;;;;42.78;38.17;;;10.90;99.90;;;;;;5099760;27;20054;-72
2022/05/03 06:59:04;;;;;;;41.65;37.15;;;10.90;99.90;;;;;;5109152;28;20078;-72
2022/05/03 07:01:29;;;;;;;41.25;36.85;;;11.00;99.90;;;;;;5107310;27;20027;-72
2022/05/03 07:03:55;;;;;;;42.35;37.78;;;11.00;99.90;;;;;;5097906;28;20040;-72
2022/05/03 07:06:21;;;;;;;40.45;35.88;;;11.10;99.90;;;;;;5090891;27;20036;-72
2022/05/03 07:08:48;;;;;;;40.58;36.13;;;11.10;99.90;;;;;;5110215;28;20047;-72
2022/05/03 07:11:14;;;;;;;41.83;37.33;;;11.10;99.90;;;;;;5107774;28;20055;-72
2022/05/03 07:13:40;;;;;;;37.88;32.90;;;11.10;99.90;;;;;;5110501;28;20285;-72
2022/05/03 07:16:06;;;;;;;37.25;32.47;;;11.10;99.90;;;;;;5110477;27;21544;-72
2022/05/03 07:24:01;;;;;;;39.15;34.78;;;11.20;99.90;;;;;;5093442;27;20475;-72
2022/05/03 07:26:26;;;;;;;40.00;34.85;;;11.20;99.90;;;;;;5105219;27;20060;-74
2022/05/03 07:28:52;;;;;;;37.47;33.13;;;11.30;99.90;;;;;;5096171;27;20035;-74
2022/05/03 07:31:21;;;;;;;40.00;34.05;;;11.30;99.90;;;;;;5100420;28;20040;-74
2022/05/03 07:33:49;;;;;;;40.72;34.63;;;11.30;99.90;;;;;;5094958;28;20054;-73
2022/05/03 07:36:18;;;;;;;40.95;33.10;;;11.30;99.90;;;;;;5098506;28;20032;-75
2022/05/03 07:38:45;;;;;;;41.65;33.28;;;11.40;99.90;;;;;;5090687;28;20402;-74
2022/05/03 07:41:11;;;;;;;39.60;33.95;;;11.40;99.90;;;;;;5096401;28;20047;-74
2022/05/03 07:43:37;;;;;;;41.13;33.50;;;11.40;99.90;;;;;;5106341;28;20090;-74
2022/05/03 07:46:03;;;;;;;38.45;30.92;;;11.40;99.90;;;;;;5090888;28;20079;-73
2022/05/03 07:48:28;;;;;;;36.90;29.83;;;11.50;99.90;;;;;;5097280;27;20504;-76
2022/05/03 07:50:54;;;;;;;39.97;32.17;;;11.60;99.90;;;;;;5105839;28;20047;-75
2022/05/03 07:53:20;;;;;;;36.08;29.38;;;11.70;99.90;;;;;;5104409;28;20036;-73
2022/05/03 07:55:50;;;;;;;41.13;31.17;;;11.80;99.90;;;;;;5109034;28;20104;-73
2022/05/03 07:58:18;;;;;;;39.53;30.58;;;11.90;99.90;;;;;;5108223;28;20032;-73
2022/05/03 08:00:44;;;;;;;37.60;30.50;;;11.90;99.90;;;;;;5107905;28;20055;-73
2022/05/03 08:03:09;;;;;;;38.60;29.98;;;11.90;99.90;;;;;;5102301;28;20035;-73
2022/05/03 08:05:35;;;;;;;39.33;30.58;;;12.00;99.90;;;;;;5106887;28;20126;-72
2022/05/03 08:08:01;;;;;;;39.28;30.42;;;11.90;99.90;;;;;;5093066;28;20040;-75
2022/05/03 08:10:26;;;;;;;41.47;30.80;;;11.90;99.90;;;;;;5094281;28;20448;-74
2022/05/03 08:12:52;;;;;;;36.00;27.60;;;11.90;99.90;;;;;;5089017;28;20036;-74
2022/05/03 08:15:21;;;;;;;34.42;26.35;;;11.90;99.90;;;;;;5097768;28;20097;-73
2022/05/03 08:17:47;;;;;;;38.92;28.70;;;12.00;99.90;;;;;;5107109;28;20039;-73
2022/05/03 08:20:15;;;;;;;34.80;26.75;;;12.00;99.90;;;;;;5097209;28;20032;-73
2022/05/03 08:22:42;;;;;;;35.80;27.52;;;11.90;99.90;;;;;;5089920;28;21525;-73
2022/05/03 08:25:08;;;;;;;34.22;26.92;;;11.90;99.90;;;;;;5094317;28;20036;-73
2022/05/03 08:27:37;;;;;;;39.53;28.60;;;11.90;99.90;;;;;;5106126;28;20161;-73
2022/05/03 08:30:04;;;;;;;37.33;28.27;;;11.90;99.90;;;;;;5103880;28;20052;-72
2022/05/03 08:32:29;;;;;;;37.72;29.33;;;11.80;99.90;;;;;;5089349;28;20044;-71
2022/05/03 08:34:55;;;;;;;41.47;31.75;;;11.90;99.90;;;;;;5088401;28;20043;-71
2022/05/03 08:42:50;;;;;;;53.90;38.35;;;11.80;99.90;;;;;;5098150;28;20056;-74
2022/05/03 08:45:17;;;;;;;58.85;40.15;;;11.80;99.90;;;;;;5107876;28;20047;-75
2022/05/03 08:47:44;;;;;;;61.47;41.53;;;11.80;99.90;;;;;;5098469;28;20063;-74
2022/05/03 08:50:11;;;;;;;65.07;42.80;;;11.70;99.90;;;;;;5096418;28;20047;-75
2022/05/03 08:52:55;;;;;;;59.05;41.20;;;11.60;99.90;;;;;;5112086;28;20517;-75
2022/05/03 08:55:21;;;;;;;60.42;42.30;;;11.60;99.90;;;;;;5112810;28;20044;-74
2022/05/03 08:57:48;;;;;;;57.83;40.70;;;11.50;99.90;;;;;;5114138;27;20092;-74
2022/05/03 09:00:15;;;;;;;56.28;39.50;;;11.40;99.90;;;;;;5093070;27;20056;-74
2022/05/03 09:02:42;;;;;;;57.97;41.70;;;11.40;99.90;;;;;;5098315;27;20039;-74
2022/05/03 09:05:11;;;;;;;52.13;37.30;;;11.30;99.90;;;;;;5112130;28;20097;-74
2022/05/03 09:07:38;;;;;;;47.15;36.17;;;11.30;99.90;;;;;;5112389;27;20047;-74
2022/05/03 09:10:18;;;;;;;47.10;36.10;;;11.30;99.90;;;;;;5105279;27;20118;-74
2022/05/03 09:12:44;;;;;;;48.08;37.75;;;11.40;99.90;;;;;;5092927;28;20055;-74
2022/05/03 09:15:13;;;;;;;46.05;36.97;;;11.40;99.90;;;;;;5091885;28;20036;-75
2022/05/03 09:17:46;;;;;;;44.33;34.80;;;11.40;99.90;;;;;;5102437;27;20054;-75
2022/05/03 09:25:56;;;;;;;27.02;20.00;;;11.50;99.90;;;;;;5096806;28;19920;-77
2022/05/03 09:28:23;;;;;;;23.90;17.98;;;11.40;99.90;;;;;;5107871;27;20083;-76
2022/05/03 09:30:52;;;;;;;23.58;16.05;;;11.40;99.90;;;;;;5106149;27;20123;-75
2022/05/03 09:33:21;;;;;;;23.77;16.73;;;11.40;99.90;;;;;;5095535;27;20036;-76
2022/05/03 09:35:47;;;;;;;21.67;16.50;;;11.50;99.90;;;;;;5105359;28;20035;-77
2022/05/03 09:38:13;;;;;;;21.27;14.65;;;11.50;99.90;;;;;;5105604;27;20035;-74
2022/05/03 09:40:44;;;;;;;19.25;12.93;;;11.60;99.90;;;;;;5097393;28;20089;-74
2022/05/03 09:43:10;;;;;;;17.45;12.20;;;11.70;99.90;;;;;;5097556;28;20594;-73
2022/05/03 09:45:37;;;;;;;17.25;12.10;;;11.70;99.90;;;;;;5093369;27;20112;-73
2022/05/03 09:48:03;;;;;;;16.33;10.63;;;11.80;99.90;;;;;;5091957;28;20060;-72
2022/05/03 09:50:42;;;;;;;16.02;10.57;;;11.80;99.90;;;;;;5107004;27;20298;-72
2022/05/03 09:53:19;;;;;;;19.08;9.57;;;12.00;99.90;;;;;;5110256;27;20562;-72
2022/05/03 09:55:48;;;;;;;14.50;9.57;;;12.10;99.90;;;;;;5092121;27;20044;-72
2022/05/03 09:58:15;;;;;;;14.73;8.77;;;12.10;99.90;;;;;;5090214;28;20074;-72
2022/05/03 10:00:43;;;;;;;16.67;10.18;;;12.20;99.90;;;;;;5089239;28;20055;-72
2022/05/03 10:03:10;;;;;;;15.32;9.77;;;12.30;99.90;;;;;;5099175;27;20048;-72
2022/05/03 10:05:38;;;;;;;14.45;9.90;;;12.30;99.90;;;;;;5111241;28;20082;-72
2022/05/03 10:08:05;;;;;;;16.95;9.55;;;12.30;99.90;;;;;;5109703;28;20085;-73
2022/05/03 10:10:31;;;;;;;14.05;10.07;;;12.30;99.90;;;;;;5104228;27;20047;-72
2022/05/03 10:12:58;;;;;;;15.30;10.55;;;12.30;99.90;;;;;;5099964;28;20067;-72
2022/05/03 10:21:15;;;;;;;17.55;12.20;;;12.00;99.90;;;;;;5106374;28;20447;-74
2022/05/03 10:23:41;;;;;;;17.40;11.85;;;12.00;99.90;;;;;;5109077;27;20394;-74
2022/05/03 10:26:10;;;;;;;18.20;12.00;;;12.00;99.90;;;;;;5105571;27;20050;-75
2022/05/03 10:29:00;;;;;;;17.27;11.48;;;12.00;99.90;;;;;;5105652;27;20161;-73
2022/05/03 10:31:27;;;;;;;20.58;11.35;;;12.10;99.90;;;;;;5108825;28;20046;-75
2022/05/03 10:33:55;;;;;;;19.75;12.23;;;12.10;99.90;;;;;;5095747;27;20101;-76
2022/05/03 10:36:32;;;;;;;23.20;12.35;;;12.20;99.90;;;;;;5090588;27;20058;-76
2022/05/03 10:39:26;;;;;;;18.48;11.80;;;12.20;99.90;;;;;;5092702;27;20052;-76
2022/05/03 10:42:01;;;;;;;17.52;10.45;;;12.20;99.90;;;;;;5105772;27;20063;-75
2022/05/03 10:44:53;;;;;;;20.38;10.40;;;12.20;99.90;;;;;;5110240;27;20487;-76
2022/05/03 10:47:21;;;;;;;17.05;10.43;;;12.20;99.90;;;;;;5088087;27;20328;-77
2022/05/03 10:50:12;;;;;;;21.83;10.95;;;12.20;99.90;;;;;;5108538;27;20051;-76
2022/05/03 10:52:40;;;;;;;17.80;10.20;;;12.20;99.90;;;;;;5088311;27;20052;-76
2022/05/03 10:55:10;;;;;;;22.42;10.48;;;12.20;99.90;;;;;;5096299;27;20040;-76
2022/05/03 10:58:13;;;;;;;30.17;11.02;;;12.20;99.90;;;;;;5106384;28;20039;-82
2022/05/03 11:01:00;;;;;;;21.25;11.13;;;12.20;99.90;;;;;;5099486;27;20436;-77
2022/05/03 11:03:33;;;;;;;20.00;10.52;;;12.20;99.90;;;;;;5095537;27;20075;-75
2022/05/03 11:06:17;;;;;;;27.38;10.93;;;12.10;99.90;;;;;;5094183;27;20126;-73
2022/05/03 11:11:43;;;;;;;24.47;10.97;;;12.30;99.90;;;;;;5109940;27;20383;-76
2022/05/03 11:14:21;;;;;;;26.60;10.15;;;12.40;99.90;;;;;;5109025;28;20051;-76
2022/05/03 11:16:48;;;;;;;21.85;9.18;;;12.40;99.90;;;;;;5109288;28;20051;-77
2022/05/03 11:19:13;;;;;;;16.90;8.57;;;12.50;99.90;;;;;;5104740;28;20522;-77
2022/05/03 11:21:40;;;;;;;26.10;10.23;;;12.50;99.90;;;;;;5088445;28;20098;-77
2022/05/03 11:24:15;;;;;;;19.67;8.43;;;12.50;99.90;;;;;;5086734;28;20123;-77
2022/05/03 11:26:41;;;;;;;23.88;8.73;;;12.60;99.90;;;;;;5088501;28;20342;-77
2022/05/03 11:29:07;;;;;;;18.05;8.05;;;12.70;99.90;;;;;;5091111;27;20043;-76
2022/05/03 11:31:33;;;;;;;21.77;8.02;;;12.70;99.90;;;;;;5106570;28;20541;-76
2022/05/03 11:33:59;;;;;;;16.63;7.78;;;12.80;99.90;;;;;;5107760;28;20403;-76
2022/05/03 11:36:27;;;;;;;21.98;8.18;;;12.90;99.90;;;;;;5108226;28;20478;-76
2022/05/03 11:38:54;;;;;;;22.65;8.40;;;12.90;99.90;;;;;;5106289;27;20047;-76
2022/05/03 11:41:28;;;;;;;19.48;8.30;;;12.80;99.90;;;;;;5096440;27;20039;-76
2022/05/03 11:43:54;;;;;;;20.25;7.88;;;12.80;99.90;;;;;;5088417;28;20485;-76
2022/05/03 11:46:22;;;;;;;17.77;8.40;;;12.70;99.90;;;;;;5087740;28;20036;-76
2022/05/03 11:48:59;;;;;;;21.17;7.75;;;12.70;99.90;;;;;;5093808;27;20050;-73
2022/05/03 11:57:25;;;;;;;18.10;7.22;;;12.80;99.90;;;;;;5104482;27;20077;-73
2022/05/03 11:59:55;;;;;;;17.83;7.10;;;12.80;99.90;;;;;;5094368;28;20040;-72
2022/05/03 12:02:27;;;;;;;16.10;6.20;;;12.80;99.90;;;;;;5106252;28;20031;-74
2022/05/03 12:05:05;;;;;;;18.05;7.03;;;12.90;99.90;;;;;;5088057;28;20103;-70
2022/05/03 12:07:35;;;;;;;16.30;7.57;;;13.00;99.90;;;;;;5096426;28;20054;-75
2022/05/03 12:10:01;;;;;;;18.10;7.80;;;13.00;99.90;;;;;;5106218;27;20044;-77
2022/05/03 12:12:45;;;;;;;16.98;7.40;;;13.00;99.90;;;;;;5102541;27;20131;-75
2022/05/03 12:15:19;;;;;;;17.80;7.35;;;13.00;99.90;;;;;;5106263;28;20555;-75
2022/05/03 12:17:55;;;;;;;14.75;8.05;;;13.10;99.90;;;;;;5098886;28;20347;-75
2022/05/03 12:20:21;;;;;;;15.38;7.35;;;13.20;99.90;;;;;;5103549;28;20048;-75
2022/05/03 12:23:10;;;;;;;16.27;7.63;;;13.20;99.90;;;;;;5095492;28;20050;-75
2022/05/03 12:25:37;;;;;;;15.00;7.68;;;13.30;99.90;;;;;;5108596;28;20040;-75
2022/05/03 12:28:04;;;;;;;12.88;7.22;;;13.30;99.90;;;;;;5101361;28;20048;-73
2022/05/03 12:30:31;;;;;;;16.02;7.72;;;13.30;99.90;;;;;;5107681;28;20054;-75
2022/05/03 12:33:04;;;;;;;16.20;7.07;;;13.30;99.90;;;;;;5106154;28;20051;-75
2022/05/03 12:35:35;;;;;;;16.60;7.20;;;13.30;99.90;;;;;;5102457;28;20131;-74
2022/05/03 12:38:09;;;;;;;14.13;6.18;;;13.40;99.90;;;;;;5098019;28;20051;-76
2022/05/03 12:40:46;;;;;;;14.55;6.45;;;13.40;99.90;;;;;;5090124;28;20075;-74
2022/05/03 12:43:17;;;;;;;13.27;6.28;;;13.40;99.90;;;;;;5094427;28;20124;-75
2022/05/03 12:45:57;;;;;;;12.95;5.90;;;13.50;99.90;;;;;;5108320;28;20646;-74
2022/05/03 12:48:23;;;;;;;14.77;6.00;;;13.60;99.90;;;;;;5107217;28;20054;-75
2022/05/03 12:50:49;;;;;;;15.18;5.50;;;13.60;99.90;;;;;;5108693;28;20645;-75
2022/05/03 12:53:15;;;;;;;12.77;6.10;;;13.60;99.90;;;;;;5095827;28;20050;-75
2022/05/03 12:55:41;;;;;;;14.82;5.40;;;13.60;99.90;;;;;;5090178;28;20462;-75
2022/05/03 12:58:21;;;;;;;11.40;5.50;;;13.70;99.90;;;;;;5088286;28;20606;-74
2022/05/03 13:00:51;;;;;;;12.88;5.07;;;13.70;99.90;;;;;;5107298;28;20043;-74
2022/05/03 13:03:18;;;;;;;14.93;5.30;;;13.70;99.90;;;;;;5100943;28;20054;-75
2022/05/03 13:05:44;;;;;;;11.93;5.43;;;13.70;99.90;;;;;;5101601;28;20050;-74
2022/05/03 13:08:10;;;;;;;14.10;5.03;;;13.70;99.90;;;;;;5099715;28;20114;-75
2022/05/03 13:10:37;;;;;;;14.57;4.90;;;13.80;99.90;;;;;;5106737;28;20047;-75
2022/05/03 13:13:03;;;;;;;15.35;5.38;;;13.80;99.90;;;;;;5090492;28;20075;-73
2022/05/03 13:15:30;;;;;;;12.30;5.03;;;13.80;99.90;;;;;;5087919;28;20074;-74
2022/05/03 13:17:56;;;;;;;14.40;5.38;;;13.80;99.90;;;;;;5101409;28;20043;-76
2022/05/03 13:20:21;;;;;;;15.15;4.97;;;13.80;99.90;;;;;;5087860;28;20079;-76
2022/05/03 13:22:47;;;;;;;14.15;5.63;;;13.90;99.90;;;;;;5090584;28;20091;-75
2022/05/03 13:25:13;;;;;;;15.98;5.45;;;14.00;99.90;;;;;;5103280;28;20050;-75
2022/05/03 13:27:39;;;;;;;12.18;4.57;;;14.10;99.90;;;;;;5095231;28;20036;-75
2022/05/03 13:30:05;;;;;;;12.32;5.32;;;14.10;99.90;;;;;;5087804;28;20544;-75
2022/05/03 13:32:31;;;;;;;13.25;5.20;;;14.10;99.90;;;;;;5086630;28;20036;-74
2022/05/03 13:34:57;;;;;;;13.50;5.07;;;14.10;99.90;;;;;;5092243;28;20046;-74